createdAt,value
2022-10-17T00:00:50.813Z,100932.56
2022-10-17T00:03:52.313Z,100927.34
2022-10-17T00:06:53.702Z,100927.56
2022-10-17T00:09:55.180Z,100927.72
2022-10-17T00:12:56.563Z,100931.94
2022-10-17T00:15:58.321Z,100939.31
2022-10-17T00:19:00.541Z,100937.75
2022-10-17T00:22:01.994Z,100936.88
2022-10-17T00:25:03.787Z,100945.78
2022-10-17T00:28:05.284Z,100953.66
2022-10-17T00:31:07.475Z,100946.66
2022-10-17T00:34:08.909Z,100946.06
2022-10-17T00:37:10.688Z,100950.69
2022-10-17T00:40:12.553Z,100957.09
2022-10-17T00:43:17.918Z,100957.94
2022-10-17T00:46:20.201Z,100950.25
2022-10-17T00:49:24.374Z,100958.63
2022-10-17T00:52:28.898Z,100958.75
2022-10-17T00:55:33.148Z,100966.03
2022-10-17T00:58:34.777Z,100969.22
2022-10-17T01:01:36.581Z,100969.97
2022-10-17T01:04:40.295Z,100975.53
2022-10-17T01:07:42.907Z,100982.56
2022-10-17T01:11:06.358Z,100984.00
2022-10-17T01:14:34.232Z,100978.28
2022-10-17T01:18:03.651Z,100980.13
2022-10-17T01:21:23.312Z,100979.06
2022-10-17T01:24:37.474Z,100983.72
2022-10-17T01:27:54.434Z,100974.13
2022-10-17T01:31:14.586Z,100978.63
2022-10-17T01:34:30.769Z,100975.34
2022-10-17T01:37:41.307Z,100972.03
2022-10-17T01:40:49.081Z,100973.00
2022-10-17T01:43:59.912Z,100986.47
2022-10-17T01:47:07.251Z,100980.50
2022-10-17T01:50:17.404Z,100969.13
2022-10-17T01:53:28.904Z,100971.06
2022-10-17T01:56:32.918Z,100970.53
2022-10-17T01:59:40.930Z,100969.69
2022-10-17T02:02:45.207Z,100966.97
2022-10-17T02:05:47.118Z,100966.97
2022-10-17T02:08:50.875Z,100959.91
2022-10-17T02:12:04.119Z,100966.97
2022-10-17T02:15:44.587Z,100966.09
2022-10-17T02:19:08.662Z,100966.16
2022-10-17T02:22:37.914Z,100959.78
2022-10-17T02:25:51.637Z,100959.91
2022-10-17T02:29:16.690Z,100958.19
2022-10-17T02:32:31.495Z,100971.34
2022-10-17T02:35:36.702Z,100966.16
2022-10-17T02:38:40.085Z,100960.84
2022-10-17T02:41:44.695Z,100966.25
2022-10-17T02:44:47.606Z,100973.25
2022-10-17T02:48:02.476Z,100973.22
2022-10-17T02:51:21.898Z,100967.25
2022-10-17T02:54:32.196Z,100978.03
2022-10-17T02:57:44.639Z,100977.16
2022-10-17T03:00:48.959Z,100980.69
2022-10-17T03:03:50.707Z,100985.03
2022-10-17T03:06:52.266Z,100980.53
2022-10-17T03:09:53.701Z,100984.75
2022-10-17T03:12:55.853Z,100978.53
2022-10-17T03:15:58.221Z,100976.13
2022-10-17T03:18:59.807Z,100979.72
2022-10-17T03:22:01.214Z,100975.28
2022-10-17T03:25:05.216Z,100978.03
2022-10-17T03:28:11.210Z,100977.22
2022-10-17T03:31:15.582Z,100974.56
2022-10-17T03:34:18.828Z,100977.88
2022-10-17T03:37:20.797Z,100978.66
2022-10-17T03:40:22.369Z,100984.00
2022-10-17T03:43:23.818Z,100976.13
2022-10-17T03:46:25.290Z,100977.94
2022-10-17T03:49:28.271Z,100979.88
2022-10-17T03:52:29.984Z,100987.19
2022-10-17T03:55:31.520Z,100989.00
2022-10-17T03:58:33.044Z,100986.31
2022-10-17T04:01:35.225Z,100989.84
2022-10-17T04:04:36.762Z,100989.88
2022-10-17T04:07:38.212Z,100993.16
2022-10-17T04:10:40.247Z,100997.50
2022-10-17T04:13:43.646Z,100993.81
2022-10-17T04:16:46.522Z,100999.41
2022-10-17T04:19:54.990Z,101009.16
2022-10-17T04:23:24.332Z,100996.25
2022-10-17T04:26:49.182Z,101009.50
2022-10-17T04:38:41.391Z,101022.56
2022-10-17T04:41:53.628Z,101033.19
2022-10-17T04:44:57.593Z,101039.63
2022-10-17T04:48:00.837Z,101029.91
2022-10-17T04:51:24.622Z,101030.00
2022-10-17T04:54:47.875Z,101024.97
2022-10-17T04:57:52.672Z,101032.25
2022-10-17T05:00:56.217Z,101030.22
2022-10-17T05:04:02.136Z,101039.09
2022-10-17T05:07:04.210Z,101036.44
2022-10-17T05:14:04.568Z,101055.81
2022-10-17T05:17:07.563Z,101044.22
2022-10-17T05:20:10.337Z,101051.13
2022-10-17T05:23:12.845Z,101035.38
2022-10-17T05:26:18.030Z,101036.31
2022-10-17T05:29:19.481Z,101037.88
2022-10-17T05:32:26.391Z,101030.72
2022-10-17T05:35:28.482Z,101038.97
2022-10-17T05:38:31.252Z,101047.84
2022-10-17T05:41:32.686Z,101051.88
2022-10-17T05:44:34.262Z,101043.13
2022-10-17T05:47:35.961Z,101042.38
2022-10-17T05:50:38.356Z,101044.56
2022-10-17T05:53:45.844Z,101045.44
2022-10-17T05:56:54.860Z,101047.34
2022-10-17T06:00:00.766Z,101049.31
2022-10-17T06:03:03.906Z,101058.84
2022-10-17T06:06:08.076Z,101059.69
2022-10-17T06:09:11.030Z,101056.25
2022-10-17T06:12:16.529Z,101058.84
2022-10-17T06:15:18.969Z,101067.59
2022-10-17T06:18:26.446Z,101065.22
2022-10-17T06:21:30.007Z,101082.03
2022-10-17T06:24:39.739Z,101069.63
2022-10-17T06:27:42.935Z,101066.06
2022-10-17T06:30:46.377Z,101074.63
2022-10-17T06:33:48.024Z,101069.06
2022-10-17T06:36:49.661Z,101069.59
2022-10-17T06:39:53.535Z,101084.25
2022-10-17T06:42:57.669Z,101084.38
2022-10-17T06:46:31.427Z,101109.69
2022-10-17T06:49:38.582Z,101106.91
2022-10-17T06:52:53.403Z,101108.44
2022-10-17T06:56:14.160Z,101116.81
2022-10-17T06:59:42.262Z,101116.31
2022-10-17T07:02:53.310Z,101112.06
2022-10-17T07:05:55.916Z,101121.66
2022-10-17T07:08:58.815Z,101122.06
2022-10-17T07:12:00.310Z,101132.00
2022-10-17T07:15:04.692Z,101133.25
2022-10-17T07:18:06.217Z,101144.50
2022-10-17T07:21:08.715Z,101140.63
2022-10-17T07:24:10.557Z,101146.59
2022-10-17T07:27:14.794Z,101149.75
2022-10-17T07:30:17.016Z,101143.19
2022-10-17T07:33:28.066Z,101153.53
2022-10-17T07:36:29.616Z,101159.44
2022-10-17T07:39:35.606Z,101157.03
2022-10-17T07:45:41.931Z,101160.63
2022-10-17T07:48:43.382Z,101161.91
2022-10-17T07:54:46.269Z,101157.81
2022-10-17T07:57:47.670Z,101163.63
2022-10-17T08:00:50.894Z,101167.56
2022-10-17T08:03:52.572Z,101176.94
2022-10-17T08:07:00.648Z,101187.91
2022-10-17T08:10:15.344Z,101194.28
2022-10-17T08:13:16.742Z,101201.34
2022-10-17T08:16:18.167Z,101194.13
2022-10-17T08:19:19.551Z,101187.84
2022-10-17T08:22:20.953Z,101184.22
2022-10-17T08:25:22.822Z,101201.22
2022-10-17T08:28:24.290Z,101194.56
2022-10-17T08:31:27.187Z,101184.00
2022-10-17T08:34:28.958Z,101191.69
2022-10-17T08:37:31.716Z,101195.47
2022-10-17T08:40:33.937Z,101189.59
2022-10-17T08:44:21.930Z,101185.31
2022-10-17T08:47:40.093Z,101182.38
2022-10-17T08:50:56.145Z,101182.38
2022-10-17T08:54:00.650Z,101183.69
2022-10-17T08:57:02.044Z,101186.03
2022-10-17T09:00:03.930Z,101188.50
2022-10-17T09:03:41.146Z,101188.00
2022-10-17T09:06:51.980Z,101181.44
2022-10-17T09:10:24.150Z,101179.25
2022-10-17T09:14:04.988Z,101177.53
2022-10-17T09:17:29.225Z,101180.78
2022-10-17T09:20:34.323Z,101185.06
2022-10-17T09:23:48.856Z,101189.19
2022-10-17T09:26:51.824Z,101193.09
2022-10-17T09:30:21.471Z,101190.19
2022-10-17T09:33:53.856Z,101199.75
2022-10-17T09:36:59.186Z,101187.91
2022-10-17T09:40:00.712Z,101190.47
2022-10-17T09:43:06.800Z,101197.63
2022-10-17T09:46:19.393Z,101205.16
2022-10-17T09:49:29.213Z,101193.84
2022-10-17T09:52:35.861Z,101193.03
2022-10-17T09:55:47.786Z,101213.69
2022-10-17T09:58:57.130Z,101201.66
2022-10-17T10:02:12.242Z,101204.13
2022-10-17T10:05:20.932Z,101206.41
2022-10-17T10:08:24.813Z,101201.22
2022-10-17T10:11:46.174Z,101211.28
2022-10-17T10:14:48.683Z,101209.63
2022-10-17T10:17:51.228Z,101219.19
2022-10-17T10:21:23.172Z,101226.66
2022-10-17T10:24:30.652Z,101224.47
2022-10-17T10:30:40.206Z,101223.38
2022-10-17T10:33:46.971Z,101218.13
2022-10-17T10:36:53.625Z,101214.91
2022-10-17T10:39:57.906Z,101219.06
2022-10-17T10:43:05.207Z,101221.81
2022-10-17T10:46:25.596Z,101221.06
2022-10-17T10:49:31.593Z,101214.69
2022-10-17T10:52:42.419Z,101217.19
2022-10-17T10:55:55.303Z,101206.66
2022-10-17T10:59:08.665Z,101211.81
2022-10-17T11:02:28.341Z,101203.34
2022-10-17T11:05:56.222Z,101200.84
2022-10-17T11:09:12.560Z,101200.31
2022-10-17T11:12:22.593Z,101211.81
2022-10-17T11:15:29.962Z,101200.97
2022-10-17T11:18:54.834Z,101204.94
2022-10-17T11:22:14.981Z,101206.66
2022-10-17T11:25:30.877Z,101209.25
2022-10-17T11:28:32.576Z,101221.47
2022-10-17T11:31:38.554Z,101221.75
2022-10-17T11:34:45.427Z,101220.94
2022-10-17T11:37:55.192Z,101226.97
2022-10-17T11:40:59.459Z,101225.13
2022-10-17T11:44:15.602Z,101220.78
2022-10-17T11:47:51.402Z,101221.84
2022-10-17T11:54:35.673Z,101222.22
2022-10-17T11:57:58.399Z,101222.44
2022-10-17T12:01:11.948Z,101222.91
2022-10-17T12:04:42.746Z,101214.28
2022-10-17T12:07:55.044Z,101211.16
2022-10-17T12:11:07.190Z,101211.47
2022-10-17T12:14:41.382Z,101215.75
2022-10-17T12:17:46.440Z,101210.34
2022-10-17T12:20:59.276Z,101223.09
2022-10-17T12:24:00.659Z,101209.75
2022-10-17T12:27:31.596Z,101212.44
2022-10-17T12:30:34.386Z,101221.13
2022-10-17T12:33:46.962Z,101199.81
2022-10-17T12:36:48.381Z,101203.47
2022-10-17T12:39:49.774Z,101202.50
2022-10-17T12:42:51.230Z,101205.78
2022-10-17T12:45:53.963Z,101195.50
2022-10-17T12:49:01.036Z,101195.16
2022-10-17T12:52:24.433Z,101197.59
2022-10-17T12:55:26.339Z,101196.63
2022-10-17T12:58:29.518Z,101194.59
2022-10-17T13:01:34.194Z,101197.13
2022-10-17T13:04:36.621Z,101201.56
2022-10-17T13:07:42.451Z,101197.41
2022-10-17T13:10:48.975Z,101197.69
2022-10-17T13:13:55.883Z,101194.53
2022-10-17T13:17:03.471Z,101193.13
2022-10-17T13:20:23.532Z,101193.97
2022-10-17T13:23:32.047Z,101189.69
2022-10-17T13:26:33.473Z,101204.97
2022-10-17T13:29:35.567Z,101212.31
2022-10-17T13:32:39.366Z,101205.97
2022-10-17T13:36:00.327Z,101207.72
2022-10-17T13:39:13.702Z,101209.38
2022-10-17T13:42:24.321Z,101219.44
2022-10-17T13:45:32.356Z,101223.84
2022-10-17T13:48:37.898Z,101225.06
2022-10-17T13:51:44.394Z,101223.28
2022-10-17T13:54:49.079Z,101225.31
2022-10-17T13:57:52.265Z,101227.91
2022-10-17T14:00:53.955Z,101223.28
2022-10-17T14:04:07.895Z,101222.09
2022-10-17T14:07:58.311Z,101226.56
2022-10-17T14:10:59.309Z,101217.53
2022-10-17T14:14:03.442Z,101226.59
2022-10-17T14:17:15.569Z,101218.16
2022-10-17T14:23:44.680Z,101224.03
2022-10-17T14:26:52.089Z,101220.34
2022-10-17T14:29:55.635Z,101222.41
2022-10-17T14:32:58.850Z,101219.88
2022-10-17T14:36:02.243Z,101220.84
2022-10-17T14:39:10.595Z,101218.56
2022-10-17T14:42:20.525Z,101222.13
2022-10-17T14:45:30.430Z,101228.16
2022-10-17T14:48:33.112Z,101229.34
2022-10-17T14:51:44.760Z,101227.25
2022-10-17T14:54:58.769Z,101229.47
2022-10-17T14:58:01.106Z,101230.84
2022-10-17T15:01:02.525Z,101237.78
2022-10-17T15:04:03.996Z,101234.56
2022-10-17T15:07:05.561Z,101230.16
2022-10-17T15:10:25.648Z,101238.13
2022-10-17T15:13:28.517Z,101239.66
2022-10-17T15:16:32.795Z,101234.25
2022-10-17T15:19:34.177Z,101239.25
2022-10-17T15:22:36.521Z,101245.34
2022-10-17T15:25:38.973Z,101252.41
2022-10-17T15:28:40.425Z,101256.09
2022-10-17T15:31:41.906Z,101256.53
2022-10-17T15:34:43.947Z,101256.72
2022-10-17T15:37:46.733Z,101259.66
2022-10-17T15:40:50.821Z,101268.59
2022-10-17T15:43:52.562Z,101261.25
2022-10-17T15:46:55.712Z,101257.41
2022-10-17T15:49:57.225Z,101261.06
2022-10-17T15:52:59.210Z,101265.38
2022-10-17T15:56:00.850Z,101261.19
2022-10-17T15:59:04.537Z,101269.03
2022-10-17T16:02:13.594Z,101259.91
2022-10-17T16:05:18.151Z,101261.25
2022-10-17T16:08:19.801Z,101267.50
2022-10-17T16:11:35.536Z,101266.44
2022-10-17T16:14:36.934Z,101270.91
2022-10-17T16:17:38.321Z,101273.81
2022-10-17T16:20:39.789Z,101280.78
2022-10-17T16:23:42.042Z,101275.16
2022-10-17T16:26:43.430Z,101277.31
2022-10-17T16:29:44.925Z,101283.31
2022-10-17T16:32:46.481Z,101277.63
2022-10-17T16:35:49.244Z,101288.03
2022-10-17T16:38:51.507Z,101294.75
2022-10-17T16:41:54.889Z,101294.53
2022-10-17T16:44:59.285Z,101300.59
2022-10-17T16:48:00.752Z,101300.28
2022-10-17T16:51:02.321Z,101309.91
2022-10-17T16:54:04.521Z,101303.50
2022-10-17T16:57:05.995Z,101311.16
2022-10-17T17:00:08.244Z,101308.06
2022-10-17T17:03:09.713Z,101302.22
2022-10-17T17:06:20.595Z,101309.59
2022-10-17T17:09:21.976Z,101311.81
2022-10-17T17:12:23.428Z,101315.06
2022-10-17T17:15:24.814Z,101326.31
2022-10-17T17:18:26.329Z,101316.34
2022-10-17T17:21:27.975Z,101322.34
2022-10-17T17:24:29.584Z,101316.22
2022-10-17T17:27:31.174Z,101312.22
2022-10-17T17:30:35.888Z,101323.09
2022-10-17T17:33:39.491Z,101318.25
2022-10-17T17:36:41.359Z,101324.13
2022-10-17T17:39:42.878Z,101332.44
2022-10-17T17:42:44.270Z,101331.78
2022-10-17T17:45:46.253Z,101332.13
2022-10-17T17:48:49.098Z,101337.81
2022-10-17T17:51:50.508Z,101338.78
2022-10-17T17:54:51.878Z,101341.81
2022-10-17T17:57:53.273Z,101340.69
2022-10-17T18:00:54.735Z,101341.63
2022-10-17T18:03:58.868Z,101342.50
2022-10-17T18:07:00.273Z,101356.81
2022-10-17T18:10:01.694Z,101357.69
2022-10-17T18:13:03.260Z,101362.78
2022-10-17T18:16:13.053Z,101367.47
2022-10-17T18:19:18.763Z,101358.56
2022-10-17T18:22:20.374Z,101366.41
2022-10-17T18:25:21.746Z,101360.91
2022-10-17T18:28:24.276Z,101365.06
2022-10-17T18:31:28.521Z,101362.13
2022-10-17T18:34:29.978Z,101362.00
2022-10-17T18:37:31.541Z,101359.22
2022-10-17T18:40:33.046Z,101359.41
2022-10-17T18:43:36.414Z,101362.09
2022-10-17T18:46:41.764Z,101357.72
2022-10-17T18:49:43.285Z,101370.34
2022-10-17T18:52:44.934Z,101367.88
2022-10-17T18:58:53.464Z,101367.81
2022-10-17T19:01:55.089Z,101366.06
2022-10-17T19:04:56.585Z,101367.03
2022-10-17T19:07:57.970Z,101364.34
2022-10-17T19:11:26.561Z,101363.31
2022-10-17T19:14:28.591Z,101364.34
2022-10-17T19:17:30.271Z,101366.25
2022-10-17T19:20:32.070Z,101364.53
2022-10-17T19:23:35.846Z,101361.94
2022-10-17T19:26:38.451Z,101348.13
2022-10-17T19:29:43.386Z,101351.75
2022-10-17T19:32:44.792Z,101349.16
2022-10-17T19:35:58.167Z,101359.09
2022-10-17T19:39:00.362Z,101355.00
2022-10-17T19:42:05.992Z,101359.31
2022-10-17T19:45:09.169Z,101360.34
2022-10-17T19:48:10.549Z,101352.41
2022-10-17T19:51:15.306Z,101353.34
2022-10-17T19:54:18.578Z,101352.59
2022-10-17T19:57:19.982Z,101354.47
2022-10-17T20:00:21.381Z,101344.03
2022-10-17T20:03:24.440Z,101346.69
2022-10-17T20:06:26.513Z,101348.75
2022-10-17T20:09:27.916Z,101350.47
2022-10-17T20:12:29.692Z,101349.53
2022-10-17T20:15:31.301Z,101353.94
2022-10-17T20:18:33.748Z,101348.91
2022-10-17T20:21:37.045Z,101355.19
2022-10-17T20:24:38.510Z,101357.00
2022-10-17T20:27:39.968Z,101349.09
2022-10-17T20:30:46.120Z,101347.34
2022-10-17T20:33:47.648Z,101347.50
2022-10-17T20:36:49.662Z,101358.34
2022-10-17T20:40:00.011Z,101362.16
2022-10-17T20:43:13.041Z,101355.06
2022-10-17T20:46:23.535Z,101358.69
2022-10-17T20:49:36.748Z,101363.22
2022-10-17T20:52:38.126Z,101356.94
2022-10-17T20:55:40.398Z,101353.81
2022-10-17T20:58:41.801Z,101346.13
2022-10-17T21:01:45.133Z,101354.91
2022-10-17T21:04:48.016Z,101372.09
2022-10-17T21:07:49.810Z,101377.56
2022-10-17T21:10:51.196Z,101377.84
2022-10-17T21:13:59.968Z,101380.50
2022-10-17T21:17:04.958Z,101393.19
2022-10-17T21:20:07.477Z,101385.53
2022-10-17T21:23:09.041Z,101388.94
2022-10-17T21:26:12.557Z,101396.34
2022-10-17T21:29:14.334Z,101393.84
2022-10-17T21:32:31.837Z,101389.56
2022-10-17T21:35:37.310Z,101386.91
2022-10-17T21:38:40.070Z,101394.91
2022-10-17T21:41:42.392Z,101387.06
2022-10-17T21:44:43.793Z,101383.75
2022-10-17T21:48:11.079Z,101389.22
2022-10-17T21:51:09.095Z,101384.06
2022-10-17T21:54:10.619Z,101382.31
2022-10-17T21:57:12.937Z,101371.72
2022-10-17T22:00:14.664Z,101383.50
2022-10-17T22:03:16.934Z,101380.75
2022-10-17T22:09:41.898Z,101368.41
2022-10-17T22:12:43.400Z,101377.34
2022-10-17T22:15:44.809Z,101374.78
2022-10-17T22:18:46.202Z,101374.91
2022-10-17T22:21:47.945Z,101373.19
2022-10-17T22:24:49.319Z,101375.22
2022-10-17T22:27:50.720Z,101372.47
2022-10-17T22:30:52.352Z,101370.81
2022-10-17T22:33:53.728Z,101372.78
2022-10-17T22:36:55.112Z,101363.91
2022-10-17T22:39:56.506Z,101364.13
2022-10-17T22:42:57.894Z,101365.00
2022-10-17T22:46:01.493Z,101363.44
2022-10-17T22:49:03.058Z,101358.09
2022-10-17T22:52:04.674Z,101354.47
2022-10-17T22:55:08.865Z,101354.47
2022-10-17T22:58:10.241Z,101346.63
2022-10-17T23:01:17.451Z,101343.97
2022-10-17T23:04:18.890Z,101354.75
2022-10-17T23:07:20.293Z,101349.72
2022-10-17T23:10:21.676Z,101354.34
2022-10-17T23:13:23.200Z,101357.94
2022-10-17T23:16:24.604Z,101359.09
2022-10-17T23:19:25.969Z,101358.28
2022-10-17T23:22:27.460Z,101359.22
2022-10-17T23:25:28.938Z,101354.75
2022-10-17T23:28:31.906Z,101359.34
2022-10-17T23:31:33.439Z,101356.25
2022-10-17T23:34:34.829Z,101360.09
2022-10-17T23:37:36.859Z,101354.59
2022-10-17T23:40:38.386Z,101356.31
2022-10-17T23:43:40.342Z,101342.13
2022-10-17T23:46:41.730Z,101341.34
2022-10-17T23:49:43.210Z,101334.34
2022-10-17T23:52:44.616Z,101334.13
2022-10-17T23:55:46.010Z,101324.34
2022-10-17T23:58:47.428Z,101326.88
